sensor_id;sensor_type;location;lat;lon;timestamp;P1;durP1;ratioP1;P2;durP2;ratioP2
79074;SDS011;68476;42.710;23.388;2023-08-30T00:00:03;12.35;;;9.00;;
79074;SDS011;68476;42.710;23.388;2023-08-30T00:02:29;11.50;;;8.52;;
79074;SDS011;68476;42.710;23.388;2023-08-30T00:04:58;10.55;;;8.32;;
79074;SDS011;68476;42.710;23.388;2023-08-30T00:07:27;11.25;;;8.38;;
79074;SDS011;68476;42.710;23.388;2023-08-30T00:09:52;11.55;;;8.18;;
79074;SDS011;68476;42.710;23.388;2023-08-30T00:12:18;11.73;;;8.68;;
79074;SDS011;68476;42.710;23.388;2023-08-30T00:14:43;11.13;;;8.48;;
79074;SDS011;68476;42.710;23.388;2023-08-30T00:17:08;11.05;;;8.73;;
79074;SDS011;68476;42.710;23.388;2023-08-30T00:19:34;11.73;;;7.90;;
79074;SDS011;68476;42.710;23.388;2023-08-30T00:21:59;11.35;;;8.13;;
79074;SDS011;68476;42.710;23.388;2023-08-30T00:24:25;10.07;;;7.80;;
79074;SDS011;68476;42.710;23.388;2023-08-30T00:26:50;9.80;;;7.50;;
79074;SDS011;68476;42.710;23.388;2023-08-30T00:29:16;8.32;;;6.88;;
79074;SDS011;68476;42.710;23.388;2023-08-30T00:31:41;9.60;;;7.55;;
79074;SDS011;68476;42.710;23.388;2023-08-30T00:34:06;10.68;;;8.18;;
79074;SDS011;68476;42.710;23.388;2023-08-30T00:36:32;11.40;;;9.00;;
79074;SDS011;68476;42.710;23.388;2023-08-30T00:38:57;9.88;;;7.80;;
79074;SDS011;68476;42.710;23.388;2023-08-30T00:41:23;9.82;;;7.40;;
79074;SDS011;68476;42.710;23.388;2023-08-30T00:43:48;12.23;;;7.13;;
79074;SDS011;68476;42.710;23.388;2023-08-30T00:46:14;11.35;;;7.60;;
79074;SDS011;68476;42.710;23.388;2023-08-30T00:48:41;13.63;;;7.72;;
79074;SDS011;68476;42.710;23.388;2023-08-30T00:51:07;11.70;;;8.13;;
79074;SDS011;68476;42.710;23.388;2023-08-30T00:53:32;10.52;;;7.72;;
79074;SDS011;68476;42.710;23.388;2023-08-30T00:55:58;9.70;;;7.22;;
79074;SDS011;68476;42.710;23.388;2023-08-30T00:58:23;10.40;;;7.75;;
79074;SDS011;68476;42.710;23.388;2023-08-30T01:00:52;8.57;;;6.88;;
79074;SDS011;68476;42.710;23.388;2023-08-30T01:03:17;12.60;;;7.28;;
79074;SDS011;68476;42.710;23.388;2023-08-30T01:05:43;9.95;;;6.95;;
79074;SDS011;68476;42.710;23.388;2023-08-30T01:08:09;8.63;;;6.65;;
79074;SDS011;68476;42.710;23.388;2023-08-30T01:13:26;8.43;;;6.30;;
79074;SDS011;68476;42.710;23.388;2023-08-30T01:15:55;8.90;;;6.90;;
79074;SDS011;68476;42.710;23.388;2023-08-30T01:18:24;8.38;;;6.40;;
79074;SDS011;68476;42.710;23.388;2023-08-30T01:20:52;10.95;;;6.57;;
79074;SDS011;68476;42.710;23.388;2023-08-30T01:28:16;8.35;;;6.47;;
79074;SDS011;68476;42.710;23.388;2023-08-30T01:30:46;10.50;;;6.80;;
79074;SDS011;68476;42.710;23.388;2023-08-30T01:33:13;9.48;;;6.63;;
79074;SDS011;68476;42.710;23.388;2023-08-30T01:35:40;11.48;;;6.78;;
79074;SDS011;68476;42.710;23.388;2023-08-30T01:38:06;9.18;;;7.22;;
79074;SDS011;68476;42.710;23.388;2023-08-30T01:40:36;9.00;;;6.03;;
79074;SDS011;68476;42.710;23.388;2023-08-30T01:43:05;10.05;;;6.68;;
79074;SDS011;68476;42.710;23.388;2023-08-30T01:45:35;7.80;;;6.18;;
79074;SDS011;68476;42.710;23.388;2023-08-30T01:48:03;10.00;;;6.50;;
79074;SDS011;68476;42.710;23.388;2023-08-30T01:50:30;9.68;;;6.38;;
79074;SDS011;68476;42.710;23.388;2023-08-30T01:52:57;8.15;;;5.65;;
79074;SDS011;68476;42.710;23.388;2023-08-30T01:55:24;9.90;;;6.45;;
79074;SDS011;68476;42.710;23.388;2023-08-30T01:57:51;9.55;;;6.80;;
79074;SDS011;68476;42.710;23.388;2023-08-30T02:00:16;9.82;;;6.95;;
79074;SDS011;68476;42.710;23.388;2023-08-30T02:02:42;10.80;;;7.13;;
79074;SDS011;68476;42.710;23.388;2023-08-30T02:05:07;10.10;;;6.78;;
79074;SDS011;68476;42.710;23.388;2023-08-30T02:07:40;11.93;;;7.97;;
79074;SDS011;68476;42.710;23.388;2023-08-30T02:10:17;16.55;;;8.35;;
79074;SDS011;68476;42.710;23.388;2023-08-30T02:12:50;12.45;;;8.65;;
79074;SDS011;68476;42.710;23.388;2023-08-30T02:15:19;13.43;;;7.85;;
79074;SDS011;68476;42.710;23.388;2023-08-30T02:17:45;11.65;;;7.53;;
79074;SDS011;68476;42.710;23.388;2023-08-30T02:20:11;10.20;;;6.80;;
79074;SDS011;68476;42.710;23.388;2023-08-30T02:22:37;9.30;;;6.57;;
79074;SDS011;68476;42.710;23.388;2023-08-30T02:25:02;10.27;;;7.35;;
79074;SDS011;68476;42.710;23.388;2023-08-30T02:29:57;10.88;;;7.07;;
79074;SDS011;68476;42.710;23.388;2023-08-30T02:32:22;11.68;;;7.25;;
79074;SDS011;68476;42.710;23.388;2023-08-30T02:34:50;9.77;;;7.63;;
79074;SDS011;68476;42.710;23.388;2023-08-30T02:37:17;12.25;;;7.80;;
79074;SDS011;68476;42.710;23.388;2023-08-30T02:39:43;10.65;;;7.28;;
79074;SDS011;68476;42.710;23.388;2023-08-30T02:42:08;10.65;;;7.55;;
79074;SDS011;68476;42.710;23.388;2023-08-30T02:44:34;12.57;;;7.60;;
79074;SDS011;68476;42.710;23.388;2023-08-30T02:46:59;9.80;;;6.88;;
79074;SDS011;68476;42.710;23.388;2023-08-30T02:49:24;9.73;;;7.20;;
79074;SDS011;68476;42.710;23.388;2023-08-30T02:51:50;9.82;;;7.47;;
79074;SDS011;68476;42.710;23.388;2023-08-30T02:54:15;10.75;;;7.47;;
79074;SDS011;68476;42.710;23.388;2023-08-30T02:56:41;12.15;;;7.38;;
79074;SDS011;68476;42.710;23.388;2023-08-30T02:59:08;10.40;;;7.10;;
79074;SDS011;68476;42.710;23.388;2023-08-30T03:01:34;10.23;;;7.18;;
79074;SDS011;68476;42.710;23.388;2023-08-30T03:04:00;10.27;;;7.72;;
79074;SDS011;68476;42.710;23.388;2023-08-30T03:06:25;12.02;;;7.40;;
79074;SDS011;68476;42.710;23.388;2023-08-30T03:08:51;10.57;;;7.38;;
79074;SDS011;68476;42.710;23.388;2023-08-30T03:11:16;10.50;;;6.88;;
79074;SDS011;68476;42.710;23.388;2023-08-30T03:13:41;11.30;;;8.02;;
79074;SDS011;68476;42.710;23.388;2023-08-30T03:16:13;15.02;;;8.20;;
79074;SDS011;68476;42.710;23.388;2023-08-30T03:18:40;10.38;;;7.72;;
79074;SDS011;68476;42.710;23.388;2023-08-30T03:21:06;11.90;;;8.00;;
79074;SDS011;68476;42.710;23.388;2023-08-30T03:23:33;11.55;;;7.60;;
79074;SDS011;68476;42.710;23.388;2023-08-30T03:25:59;13.27;;;8.25;;
79074;SDS011;68476;42.710;23.388;2023-08-30T03:28:25;12.68;;;8.10;;
79074;SDS011;68476;42.710;23.388;2023-08-30T03:30:50;10.52;;;8.13;;
79074;SDS011;68476;42.710;23.388;2023-08-30T03:33:16;11.30;;;7.80;;
79074;SDS011;68476;42.710;23.388;2023-08-30T03:35:41;13.55;;;9.63;;
79074;SDS011;68476;42.710;23.388;2023-08-30T03:38:06;11.32;;;8.50;;
79074;SDS011;68476;42.710;23.388;2023-08-30T03:40:32;12.55;;;8.77;;
79074;SDS011;68476;42.710;23.388;2023-08-30T03:42:57;13.02;;;9.10;;
79074;SDS011;68476;42.710;23.388;2023-08-30T03:45:23;11.13;;;8.43;;
79074;SDS011;68476;42.710;23.388;2023-08-30T03:47:48;10.50;;;8.27;;
79074;SDS011;68476;42.710;23.388;2023-08-30T03:50:14;13.13;;;8.82;;
79074;SDS011;68476;42.710;23.388;2023-08-30T03:52:39;13.18;;;9.13;;
79074;SDS011;68476;42.710;23.388;2023-08-30T03:55:05;13.38;;;8.90;;
79074;SDS011;68476;42.710;23.388;2023-08-30T03:57:30;14.00;;;9.63;;
79074;SDS011;68476;42.710;23.388;2023-08-30T03:59:56;14.15;;;10.93;;
79074;SDS011;68476;42.710;23.388;2023-08-30T04:02:21;17.10;;;9.20;;
79074;SDS011;68476;42.710;23.388;2023-08-30T04:04:47;13.65;;;9.32;;
79074;SDS011;68476;42.710;23.388;2023-08-30T04:07:13;15.40;;;8.88;;
79074;SDS011;68476;42.710;23.388;2023-08-30T04:09:38;10.23;;;8.48;;
79074;SDS011;68476;42.710;23.388;2023-08-30T04:12:04;14.43;;;8.98;;
79074;SDS011;68476;42.710;23.388;2023-08-30T04:14:30;13.63;;;8.75;;
79074;SDS011;68476;42.710;23.388;2023-08-30T04:16:55;11.50;;;9.15;;
79074;SDS011;68476;42.710;23.388;2023-08-30T04:19:21;11.68;;;8.55;;
79074;SDS011;68476;42.710;23.388;2023-08-30T04:21:46;13.30;;;9.75;;
79074;SDS011;68476;42.710;23.388;2023-08-30T04:24:12;12.82;;;8.82;;
79074;SDS011;68476;42.710;23.388;2023-08-30T04:26:37;12.38;;;8.98;;
79074;SDS011;68476;42.710;23.388;2023-08-30T04:29:02;12.80;;;8.65;;
79074;SDS011;68476;42.710;23.388;2023-08-30T04:31:28;14.45;;;8.57;;
79074;SDS011;68476;42.710;23.388;2023-08-30T04:33:54;12.35;;;8.40;;
79074;SDS011;68476;42.710;23.388;2023-08-30T04:36:20;13.13;;;9.15;;
79074;SDS011;68476;42.710;23.388;2023-08-30T04:38:46;13.05;;;8.65;;
79074;SDS011;68476;42.710;23.388;2023-08-30T04:41:12;11.82;;;8.10;;
79074;SDS011;68476;42.710;23.388;2023-08-30T04:43:37;11.52;;;7.90;;
79074;SDS011;68476;42.710;23.388;2023-08-30T04:46:03;10.90;;;7.57;;
79074;SDS011;68476;42.710;23.388;2023-08-30T04:48:28;11.27;;;7.53;;
79074;SDS011;68476;42.710;23.388;2023-08-30T04:51:03;8.82;;;7.10;;
79074;SDS011;68476;42.710;23.388;2023-08-30T04:53:29;13.63;;;7.07;;
79074;SDS011;68476;42.710;23.388;2023-08-30T04:55:55;10.57;;;6.90;;
79074;SDS011;68476;42.710;23.388;2023-08-30T04:58:20;9.35;;;8.00;;
79074;SDS011;68476;42.710;23.388;2023-08-30T05:00:45;10.85;;;7.85;;
79074;SDS011;68476;42.710;23.388;2023-08-30T05:03:11;11.23;;;7.82;;
79074;SDS011;68476;42.710;23.388;2023-08-30T05:05:36;9.73;;;7.78;;
79074;SDS011;68476;42.710;23.388;2023-08-30T05:08:02;11.25;;;7.50;;
79074;SDS011;68476;42.710;23.388;2023-08-30T05:10:28;8.75;;;7.30;;
79074;SDS011;68476;42.710;23.388;2023-08-30T05:12:54;13.80;;;8.13;;
79074;SDS011;68476;42.710;23.388;2023-08-30T05:15:19;12.20;;;7.78;;
79074;SDS011;68476;42.710;23.388;2023-08-30T05:17:45;12.15;;;7.68;;
79074;SDS011;68476;42.710;23.388;2023-08-30T05:20:11;12.20;;;8.23;;
79074;SDS011;68476;42.710;23.388;2023-08-30T05:22:36;11.95;;;7.85;;
79074;SDS011;68476;42.710;23.388;2023-08-30T05:25:02;13.45;;;7.93;;
79074;SDS011;68476;42.710;23.388;2023-08-30T05:27:27;10.82;;;8.13;;
79074;SDS011;68476;42.710;23.388;2023-08-30T05:29:53;12.80;;;8.48;;
79074;SDS011;68476;42.710;23.388;2023-08-30T05:32:20;10.25;;;8.45;;
79074;SDS011;68476;42.710;23.388;2023-08-30T05:34:46;10.30;;;8.27;;
79074;SDS011;68476;42.710;23.388;2023-08-30T05:37:11;11.15;;;7.55;;
79074;SDS011;68476;42.710;23.388;2023-08-30T05:39:37;13.52;;;8.18;;
79074;SDS011;68476;42.710;23.388;2023-08-30T05:42:02;11.98;;;7.97;;
79074;SDS011;68476;42.710;23.388;2023-08-30T05:44:28;8.85;;;7.03;;
79074;SDS011;68476;42.710;23.388;2023-08-30T05:46:53;10.90;;;7.57;;
79074;SDS011;68476;42.710;23.388;2023-08-30T05:49:19;10.07;;;7.32;;
79074;SDS011;68476;42.710;23.388;2023-08-30T05:51:44;10.63;;;7.45;;
79074;SDS011;68476;42.710;23.388;2023-08-30T05:54:09;13.32;;;7.40;;
79074;SDS011;68476;42.710;23.388;2023-08-30T05:56:35;11.50;;;6.70;;
79074;SDS011;68476;42.710;23.388;2023-08-30T05:59:00;10.15;;;6.85;;
79074;SDS011;68476;42.710;23.388;2023-08-30T06:01:26;8.75;;;5.97;;
79074;SDS011;68476;42.710;23.388;2023-08-30T06:03:51;10.77;;;5.43;;
79074;SDS011;68476;42.710;23.388;2023-08-30T06:06:16;10.35;;;5.50;;
79074;SDS011;68476;42.710;23.388;2023-08-30T06:08:42;9.23;;;5.63;;
79074;SDS011;68476;42.710;23.388;2023-08-30T06:11:07;10.93;;;6.07;;
79074;SDS011;68476;42.710;23.388;2023-08-30T06:13:33;9.32;;;5.80;;
79074;SDS011;68476;42.710;23.388;2023-08-30T06:15:58;13.13;;;5.75;;
79074;SDS011;68476;42.710;23.388;2023-08-30T06:18:24;12.38;;;5.07;;
79074;SDS011;68476;42.710;23.388;2023-08-30T06:20:49;11.18;;;4.57;;
79074;SDS011;68476;42.710;23.388;2023-08-30T06:23:18;8.27;;;4.60;;
79074;SDS011;68476;42.710;23.388;2023-08-30T06:25:44;8.70;;;4.70;;
79074;SDS011;68476;42.710;23.388;2023-08-30T06:28:10;10.45;;;4.88;;
79074;SDS011;68476;42.710;23.388;2023-08-30T06:30:35;10.40;;;4.78;;
79074;SDS011;68476;42.710;23.388;2023-08-30T06:33:00;9.73;;;5.90;;
79074;SDS011;68476;42.710;23.388;2023-08-30T06:35:26;11.35;;;5.60;;
79074;SDS011;68476;42.710;23.388;2023-08-30T06:37:51;7.30;;;5.30;;
79074;SDS011;68476;42.710;23.388;2023-08-30T06:40:18;9.68;;;5.30;;
79074;SDS011;68476;42.710;23.388;2023-08-30T06:42:43;9.10;;;5.80;;
79074;SDS011;68476;42.710;23.388;2023-08-30T06:45:08;8.20;;;4.90;;
79074;SDS011;68476;42.710;23.388;2023-08-30T06:47:34;14.45;;;5.60;;
79074;SDS011;68476;42.710;23.388;2023-08-30T06:49:59;10.48;;;5.55;;
79074;SDS011;68476;42.710;23.388;2023-08-30T06:52:25;11.98;;;5.00;;
79074;SDS011;68476;42.710;23.388;2023-08-30T06:54:51;11.60;;;5.50;;
79074;SDS011;68476;42.710;23.388;2023-08-30T06:57:16;13.35;;;5.47;;
79074;SDS011;68476;42.710;23.388;2023-08-30T06:59:42;8.57;;;4.85;;
79074;SDS011;68476;42.710;23.388;2023-08-30T07:02:07;9.05;;;5.22;;
79074;SDS011;68476;42.710;23.388;2023-08-30T07:04:33;10.55;;;5.68;;
79074;SDS011;68476;42.710;23.388;2023-08-30T07:06:59;10.63;;;5.53;;
79074;SDS011;68476;42.710;23.388;2023-08-30T07:09:24;9.80;;;5.47;;
79074;SDS011;68476;42.710;23.388;2023-08-30T07:11:56;11.50;;;5.90;;
79074;SDS011;68476;42.710;23.388;2023-08-30T07:14:22;12.32;;;6.00;;
79074;SDS011;68476;42.710;23.388;2023-08-30T07:16:47;7.57;;;4.75;;
79074;SDS011;68476;42.710;23.388;2023-08-30T07:19:14;6.32;;;4.90;;
79074;SDS011;68476;42.710;23.388;2023-08-30T07:21:40;10.45;;;5.82;;
79074;SDS011;68476;42.710;23.388;2023-08-30T07:24:07;9.70;;;5.53;;
79074;SDS011;68476;42.710;23.388;2023-08-30T07:26:32;10.15;;;5.45;;
79074;SDS011;68476;42.710;23.388;2023-08-30T07:28:58;12.55;;;5.85;;
79074;SDS011;68476;42.710;23.388;2023-08-30T07:31:23;18.65;;;5.90;;
79074;SDS011;68476;42.710;23.388;2023-08-30T07:33:49;9.65;;;5.65;;
79074;SDS011;68476;42.710;23.388;2023-08-30T07:36:14;10.10;;;5.35;;
79074;SDS011;68476;42.710;23.388;2023-08-30T07:38:40;18.17;;;5.43;;
79074;SDS011;68476;42.710;23.388;2023-08-30T07:41:05;12.90;;;5.70;;
79074;SDS011;68476;42.710;23.388;2023-08-30T07:43:30;17.75;;;6.38;;
79074;SDS011;68476;42.710;23.388;2023-08-30T07:45:57;13.23;;;5.22;;
79074;SDS011;68476;42.710;23.388;2023-08-30T07:48:23;8.02;;;4.70;;
79074;SDS011;68476;42.710;23.388;2023-08-30T07:50:48;8.70;;;4.68;;
79074;SDS011;68476;42.710;23.388;2023-08-30T07:53:14;8.80;;;4.97;;
79074;SDS011;68476;42.710;23.388;2023-08-30T07:55:39;14.77;;;5.40;;
79074;SDS011;68476;42.710;23.388;2023-08-30T07:58:05;11.68;;;4.97;;
79074;SDS011;68476;42.710;23.388;2023-08-30T08:00:30;8.90;;;4.88;;
79074;SDS011;68476;42.710;23.388;2023-08-30T08:02:55;12.13;;;4.95;;
79074;SDS011;68476;42.710;23.388;2023-08-30T08:05:21;7.53;;;4.88;;
79074;SDS011;68476;42.710;23.388;2023-08-30T08:07:49;10.82;;;4.90;;
79074;SDS011;68476;42.710;23.388;2023-08-30T08:10:16;8.40;;;5.22;;
79074;SDS011;68476;42.710;23.388;2023-08-30T08:12:42;7.35;;;5.03;;
79074;SDS011;68476;42.710;23.388;2023-08-30T08:15:07;18.58;;;5.90;;
79074;SDS011;68476;42.710;23.388;2023-08-30T08:17:33;12.65;;;4.75;;
79074;SDS011;68476;42.710;23.388;2023-08-30T08:19:58;6.82;;;4.65;;
79074;SDS011;68476;42.710;23.388;2023-08-30T08:22:23;6.15;;;4.45;;
79074;SDS011;68476;42.710;23.388;2023-08-30T08:24:49;5.93;;;4.38;;
79074;SDS011;68476;42.710;23.388;2023-08-30T08:27:16;7.97;;;4.40;;
79074;SDS011;68476;42.710;23.388;2023-08-30T08:29:42;7.00;;;4.70;;
79074;SDS011;68476;42.710;23.388;2023-08-30T08:32:07;8.60;;;4.43;;
79074;SDS011;68476;42.710;23.388;2023-08-30T08:34:33;9.52;;;4.22;;
79074;SDS011;68476;42.710;23.388;2023-08-30T08:36:58;8.13;;;3.67;;
79074;SDS011;68476;42.710;23.388;2023-08-30T08:39:24;9.15;;;3.80;;
79074;SDS011;68476;42.710;23.388;2023-08-30T08:41:49;9.52;;;4.03;;
79074;SDS011;68476;42.710;23.388;2023-08-30T08:46:43;6.75;;;3.80;;
79074;SDS011;68476;42.710;23.388;2023-08-30T08:49:14;7.90;;;3.72;;
79074;SDS011;68476;42.710;23.388;2023-08-30T08:51:41;8.30;;;3.85;;
79074;SDS011;68476;42.710;23.388;2023-08-30T08:54:08;7.25;;;3.28;;
79074;SDS011;68476;42.710;23.388;2023-08-30T08:56:34;6.70;;;3.10;;
79074;SDS011;68476;42.710;23.388;2023-08-30T08:59:01;5.53;;;2.95;;
79074;SDS011;68476;42.710;23.388;2023-08-30T09:01:27;6.55;;;3.05;;
79074;SDS011;68476;42.710;23.388;2023-08-30T09:03:53;7.20;;;2.95;;
79074;SDS011;68476;42.710;23.388;2023-08-30T09:06:19;7.50;;;3.72;;
79074;SDS011;68476;42.710;23.388;2023-08-30T09:08:46;6.30;;;3.55;;
79074;SDS011;68476;42.710;23.388;2023-08-30T09:11:12;7.55;;;3.78;;
79074;SDS011;68476;42.710;23.388;2023-08-30T09:13:37;6.30;;;3.65;;
79074;SDS011;68476;42.710;23.388;2023-08-30T09:16:02;4.93;;;3.13;;
79074;SDS011;68476;42.710;23.388;2023-08-30T09:18:37;6.10;;;3.70;;
79074;SDS011;68476;42.710;23.388;2023-08-30T09:21:06;8.65;;;3.42;;
79074;SDS011;68476;42.710;23.388;2023-08-30T09:23:32;7.38;;;3.47;;
79074;SDS011;68476;42.710;23.388;2023-08-30T09:25:59;6.38;;;3.45;;
79074;SDS011;68476;42.710;23.388;2023-08-30T09:28:25;7.03;;;3.83;;
79074;SDS011;68476;42.710;23.388;2023-08-30T09:30:51;7.72;;;4.50;;
79074;SDS011;68476;42.710;23.388;2023-08-30T09:33:29;6.15;;;3.70;;
79074;SDS011;68476;42.710;23.388;2023-08-30T09:35:58;6.70;;;4.00;;
79074;SDS011;68476;42.710;23.388;2023-08-30T09:38:27;7.93;;;3.95;;
79074;SDS011;68476;42.710;23.388;2023-08-30T09:41:02;6.75;;;4.28;;
79074;SDS011;68476;42.710;23.388;2023-08-30T09:43:29;6.40;;;3.60;;
79074;SDS011;68476;42.710;23.388;2023-08-30T09:45:54;5.75;;;3.80;;
79074;SDS011;68476;42.710;23.388;2023-08-30T09:48:23;6.95;;;3.72;;
79074;SDS011;68476;42.710;23.388;2023-08-30T09:50:53;11.00;;;3.65;;
79074;SDS011;68476;42.710;23.388;2023-08-30T09:53:23;6.80;;;3.65;;
79074;SDS011;68476;42.710;23.388;2023-08-30T09:55:54;9.10;;;4.10;;
79074;SDS011;68476;42.710;23.388;2023-08-30T09:58:21;6.65;;;3.63;;
79074;SDS011;68476;42.710;23.388;2023-08-30T10:00:48;6.18;;;3.72;;
79074;SDS011;68476;42.710;23.388;2023-08-30T10:03:14;12.00;;;4.13;;
79074;SDS011;68476;42.710;23.388;2023-08-30T10:05:42;6.45;;;4.05;;
79074;SDS011;68476;42.710;23.388;2023-08-30T10:08:10;6.28;;;4.00;;
79074;SDS011;68476;42.710;23.388;2023-08-30T10:10:38;9.60;;;4.20;;
79074;SDS011;68476;42.710;23.388;2023-08-30T10:13:04;6.40;;;3.90;;
79074;SDS011;68476;42.710;23.388;2023-08-30T10:15:30;7.53;;;4.00;;
79074;SDS011;68476;42.710;23.388;2023-08-30T10:18:00;5.50;;;3.70;;
79074;SDS011;68476;42.710;23.388;2023-08-30T10:20:28;5.80;;;3.80;;
79074;SDS011;68476;42.710;23.388;2023-08-30T10:22:53;6.55;;;4.07;;
79074;SDS011;68476;42.710;23.388;2023-08-30T10:25:24;7.50;;;4.25;;
79074;SDS011;68476;42.710;23.388;2023-08-30T10:27:53;6.32;;;4.13;;
79074;SDS011;68476;42.710;23.388;2023-08-30T10:30:20;6.00;;;3.90;;
79074;SDS011;68476;42.710;23.388;2023-08-30T10:32:46;6.25;;;4.50;;
79074;SDS011;68476;42.710;23.388;2023-08-30T10:35:16;10.63;;;4.63;;
79074;SDS011;68476;42.710;23.388;2023-08-30T10:37:53;10.05;;;4.20;;
79074;SDS011;68476;42.710;23.388;2023-08-30T10:40:19;7.20;;;4.00;;
79074;SDS011;68476;42.710;23.388;2023-08-30T10:42:47;5.95;;;4.28;;
79074;SDS011;68476;42.710;23.388;2023-08-30T10:45:23;8.43;;;4.05;;
79074;SDS011;68476;42.710;23.388;2023-08-30T10:47:53;14.02;;;4.57;;
79074;SDS011;68476;42.710;23.388;2023-08-30T10:50:27;8.88;;;3.70;;
79074;SDS011;68476;42.710;23.388;2023-08-30T10:55:21;12.30;;;4.30;;
79074;SDS011;68476;42.710;23.388;2023-08-30T10:57:57;6.70;;;4.13;;
79074;SDS011;68476;42.710;23.388;2023-08-30T11:00:28;5.28;;;3.25;;
79074;SDS011;68476;42.710;23.388;2023-08-30T11:02:54;10.30;;;4.45;;
79074;SDS011;68476;42.710;23.388;2023-08-30T11:05:25;7.25;;;4.13;;
79074;SDS011;68476;42.710;23.388;2023-08-30T11:07:52;4.22;;;3.05;;
79074;SDS011;68476;42.710;23.388;2023-08-30T11:10:19;10.68;;;4.57;;
79074;SDS011;68476;42.710;23.388;2023-08-30T11:12:45;7.75;;;4.60;;
79074;SDS011;68476;42.710;23.388;2023-08-30T11:15:13;6.13;;;4.40;;
79074;SDS011;68476;42.710;23.388;2023-08-30T11:17:39;7.93;;;4.70;;
79074;SDS011;68476;42.710;23.388;2023-08-30T11:20:06;7.45;;;4.45;;
79074;SDS011;68476;42.710;23.388;2023-08-30T11:22:34;8.45;;;5.07;;
79074;SDS011;68476;42.710;23.388;2023-08-30T11:25:01;7.18;;;4.78;;
79074;SDS011;68476;42.710;23.388;2023-08-30T11:27:27;7.60;;;4.03;;
79074;SDS011;68476;42.710;23.388;2023-08-30T11:29:52;4.97;;;4.18;;
79074;SDS011;68476;42.710;23.388;2023-08-30T11:32:18;7.38;;;4.43;;
79074;SDS011;68476;42.710;23.388;2023-08-30T11:34:54;6.30;;;4.60;;
79074;SDS011;68476;42.710;23.388;2023-08-30T11:37:21;8.55;;;4.55;;
79074;SDS011;68476;42.710;23.388;2023-08-30T11:39:51;5.60;;;4.25;;
79074;SDS011;68476;42.710;23.388;2023-08-30T11:42:17;8.18;;;4.68;;
79074;SDS011;68476;42.710;23.388;2023-08-30T11:44:43;5.90;;;4.70;;
79074;SDS011;68476;42.710;23.388;2023-08-30T11:47:09;6.13;;;4.45;;
79074;SDS011;68476;42.710;23.388;2023-08-30T11:49:35;6.20;;;5.00;;
79074;SDS011;68476;42.710;23.388;2023-08-30T11:52:01;5.95;;;4.22;;
79074;SDS011;68476;42.710;23.388;2023-08-30T11:54:27;6.00;;;4.22;;
79074;SDS011;68476;42.710;23.388;2023-08-30T11:56:53;8.30;;;4.80;;
79074;SDS011;68476;42.710;23.388;2023-08-30T11:59:20;31.52;;;6.18;;
79074;SDS011;68476;42.710;23.388;2023-08-30T12:01:47;6.18;;;4.30;;
79074;SDS011;68476;42.710;23.388;2023-08-30T12:04:14;5.72;;;4.90;;
79074;SDS011;68476;42.710;23.388;2023-08-30T12:06:40;6.15;;;4.50;;
79074;SDS011;68476;42.710;23.388;2023-08-30T12:09:05;5.45;;;4.55;;
79074;SDS011;68476;42.710;23.388;2023-08-30T12:11:37;9.65;;;4.90;;
79074;SDS011;68476;42.710;23.388;2023-08-30T12:14:02;7.22;;;4.65;;
79074;SDS011;68476;42.710;23.388;2023-08-30T12:16:28;8.50;;;4.38;;
79074;SDS011;68476;42.710;23.388;2023-08-30T12:18:53;5.93;;;4.22;;
79074;SDS011;68476;42.710;23.388;2023-08-30T12:21:18;11.23;;;4.88;;
79074;SDS011;68476;42.710;23.388;2023-08-30T12:23:44;6.53;;;4.63;;
79074;SDS011;68476;42.710;23.388;2023-08-30T12:26:10;6.78;;;4.40;;
79074;SDS011;68476;42.710;23.388;2023-08-30T12:28:39;6.38;;;4.20;;
79074;SDS011;68476;42.710;23.388;2023-08-30T12:31:06;8.90;;;4.47;;
79074;SDS011;68476;42.710;23.388;2023-08-30T12:33:33;5.13;;;4.13;;
79074;SDS011;68476;42.710;23.388;2023-08-30T12:35:59;6.40;;;4.22;;
79074;SDS011;68476;42.710;23.388;2023-08-30T12:38:25;8.18;;;4.75;;
79074;SDS011;68476;42.710;23.388;2023-08-30T12:40:51;6.88;;;4.53;;
79074;SDS011;68476;42.710;23.388;2023-08-30T12:43:20;5.72;;;4.10;;
79074;SDS011;68476;42.710;23.388;2023-08-30T12:45:46;7.05;;;4.30;;
79074;SDS011;68476;42.710;23.388;2023-08-30T12:48:13;11.02;;;4.78;;
79074;SDS011;68476;42.710;23.388;2023-08-30T12:50:40;12.95;;;5.25;;
79074;SDS011;68476;42.710;23.388;2023-08-30T12:53:07;8.35;;;4.85;;
79074;SDS011;68476;42.710;23.388;2023-08-30T12:55:34;7.10;;;4.75;;
79074;SDS011;68476;42.710;23.388;2023-08-30T12:57:59;6.97;;;4.40;;
79074;SDS011;68476;42.710;23.388;2023-08-30T13:00:25;5.55;;;4.80;;
79074;SDS011;68476;42.710;23.388;2023-08-30T13:02:51;8.57;;;4.90;;
79074;SDS011;68476;42.710;23.388;2023-08-30T13:05:16;8.65;;;4.63;;
79074;SDS011;68476;42.710;23.388;2023-08-30T13:07:42;6.60;;;4.70;;
79074;SDS011;68476;42.710;23.388;2023-08-30T13:10:08;7.25;;;4.40;;
79074;SDS011;68476;42.710;23.388;2023-08-30T13:12:34;6.65;;;4.45;;
79074;SDS011;68476;42.710;23.388;2023-08-30T13:15:00;6.30;;;4.70;;
79074;SDS011;68476;42.710;23.388;2023-08-30T13:17:26;5.75;;;4.53;;
79074;SDS011;68476;42.710;23.388;2023-08-30T13:19:52;6.18;;;4.90;;
79074;SDS011;68476;42.710;23.388;2023-08-30T13:22:17;6.60;;;5.20;;
79074;SDS011;68476;42.710;23.388;2023-08-30T13:27:12;5.38;;;4.82;;
79074;SDS011;68476;42.710;23.388;2023-08-30T13:29:38;9.77;;;5.30;;
79074;SDS011;68476;42.710;23.388;2023-08-30T13:32:03;7.15;;;4.55;;
79074;SDS011;68476;42.710;23.388;2023-08-30T13:34:29;6.80;;;4.80;;
79074;SDS011;68476;42.710;23.388;2023-08-30T13:36:54;9.07;;;4.82;;
79074;SDS011;68476;42.710;23.388;2023-08-30T13:39:20;7.15;;;4.80;;
79074;SDS011;68476;42.710;23.388;2023-08-30T13:41:45;6.80;;;4.70;;
79074;SDS011;68476;42.710;23.388;2023-08-30T13:44:14;8.88;;;4.10;;
79074;SDS011;68476;42.710;23.388;2023-08-30T13:46:40;6.93;;;4.57;;
79074;SDS011;68476;42.710;23.388;2023-08-30T13:49:06;7.88;;;4.22;;
79074;SDS011;68476;42.710;23.388;2023-08-30T13:51:31;9.77;;;4.20;;
79074;SDS011;68476;42.710;23.388;2023-08-30T13:53:57;7.22;;;4.45;;
79074;SDS011;68476;42.710;23.388;2023-08-30T13:56:22;6.50;;;4.28;;
79074;SDS011;68476;42.710;23.388;2023-08-30T13:58:48;7.97;;;4.97;;
79074;SDS011;68476;42.710;23.388;2023-08-30T14:01:14;5.22;;;3.90;;
79074;SDS011;68476;42.710;23.388;2023-08-30T14:03:40;8.60;;;3.95;;
79074;SDS011;68476;42.710;23.388;2023-08-30T14:06:05;4.50;;;3.28;;
79074;SDS011;68476;42.710;23.388;2023-08-30T14:08:31;6.72;;;3.55;;
79074;SDS011;68476;42.710;23.388;2023-08-30T14:10:57;5.68;;;3.70;;
79074;SDS011;68476;42.710;23.388;2023-08-30T14:13:22;4.63;;;3.10;;
79074;SDS011;68476;42.710;23.388;2023-08-30T14:15:48;6.25;;;3.72;;
79074;SDS011;68476;42.710;23.388;2023-08-30T14:18:14;7.28;;;3.80;;
79074;SDS011;68476;42.710;23.388;2023-08-30T14:20:43;6.70;;;3.78;;
79074;SDS011;68476;42.710;23.388;2023-08-30T14:25:34;6.38;;;3.65;;
79074;SDS011;68476;42.710;23.388;2023-08-30T14:28:00;5.80;;;3.58;;
79074;SDS011;68476;42.710;23.388;2023-08-30T14:30:25;4.45;;;3.42;;
79074;SDS011;68476;42.710;23.388;2023-08-30T14:32:51;8.35;;;3.88;;
79074;SDS011;68476;42.710;23.388;2023-08-30T14:35:17;7.22;;;3.50;;
79074;SDS011;68476;42.710;23.388;2023-08-30T14:37:45;5.75;;;3.45;;
79074;SDS011;68476;42.710;23.388;2023-08-30T14:40:12;6.10;;;3.08;;
79074;SDS011;68476;42.710;23.388;2023-08-30T14:42:38;5.25;;;3.38;;